createdAt,value
2022-07-29T00:00:23.513Z,46.3
2022-07-29T00:01:23.509Z,45.4
2022-07-29T00:02:23.541Z,46
2022-07-29T00:03:23.594Z,45.6
2022-07-29T00:05:23.510Z,46.3
2022-07-29T00:06:23.524Z,45.4
2022-07-29T00:07:23.516Z,46.1
2022-07-29T00:09:23.512Z,45.9
2022-07-29T00:10:23.509Z,45.9
2022-07-29T00:11:23.522Z,46
2022-07-29T00:12:26.581Z,45.9
2022-07-29T00:13:32.402Z,45.6
2022-07-29T00:14:23.521Z,46
2022-07-29T00:15:23.552Z,46
2022-07-29T00:16:23.574Z,46.6
2022-07-29T00:18:23.519Z,45.8
2022-07-29T00:19:23.523Z,45.8
2022-07-29T00:21:23.519Z,45.8
2022-07-29T00:22:23.526Z,45.4
2022-07-29T00:24:23.521Z,45.5
2022-07-29T00:26:23.519Z,46.1
2022-07-29T00:27:23.519Z,46.2
2022-07-29T00:28:23.524Z,45.8
2022-07-29T00:29:35.684Z,46
2022-07-29T00:30:23.529Z,46
2022-07-29T00:32:23.521Z,45.8
2022-07-29T00:33:23.527Z,46.4
2022-07-29T00:34:23.576Z,45.7
2022-07-29T00:35:23.523Z,45.8
2022-07-29T00:36:23.539Z,46
2022-07-29T00:37:23.533Z,46.2
2022-07-29T00:39:23.527Z,46.3
2022-07-29T00:40:23.794Z,46
2022-07-29T00:41:23.531Z,46.4
2022-07-29T00:42:23.533Z,46.4
2022-07-29T00:43:23.525Z,46.2
2022-07-29T00:44:23.534Z,46.2
2022-07-29T00:45:23.546Z,45.6
2022-07-29T00:47:23.538Z,46.6
2022-07-29T00:48:23.527Z,46.9
2022-07-29T00:49:23.622Z,47.1
2022-07-29T00:51:23.535Z,46.1
2022-07-29T00:53:23.530Z,45.7
2022-07-29T00:54:23.526Z,47
2022-07-29T00:55:23.533Z,47.2
2022-07-29T00:56:23.528Z,46.5
2022-07-29T00:57:23.545Z,46.3
2022-07-29T00:58:23.532Z,46.7
2022-07-29T01:00:23.540Z,47.1
2022-07-29T01:01:23.610Z,47.6
2022-07-29T01:02:23.643Z,47.3
2022-07-29T01:03:23.538Z,47
2022-07-29T01:04:23.539Z,47.3
2022-07-29T01:05:23.532Z,47.4
2022-07-29T01:06:23.535Z,46.8
2022-07-29T01:08:23.573Z,47
2022-07-29T01:09:34.966Z,47.9
2022-07-29T01:10:23.538Z,47.7
2022-07-29T01:12:23.597Z,47
2022-07-29T01:14:23.544Z,46.8
2022-07-29T01:15:23.547Z,46.4
2022-07-29T01:16:23.594Z,47.1
2022-07-29T01:17:23.548Z,47.5
2022-07-29T01:18:23.562Z,47.1
2022-07-29T01:19:23.551Z,47.1
2022-07-29T01:21:23.540Z,47.1
2022-07-29T01:22:23.551Z,46.9
2022-07-29T01:23:23.802Z,46.6
2022-07-29T01:24:23.537Z,46.8
2022-07-29T01:25:23.552Z,47.2
2022-07-29T01:26:23.547Z,47.3
2022-07-29T01:27:23.553Z,47.4
2022-07-29T01:28:23.550Z,47.4
2022-07-29T01:29:23.548Z,47.1
2022-07-29T01:30:23.553Z,47.8
2022-07-29T01:31:25.387Z,48.3
2022-07-29T01:33:23.556Z,47.2
2022-07-29T01:34:23.587Z,48.1
2022-07-29T01:35:23.561Z,47.1
2022-07-29T01:36:23.552Z,48.1
2022-07-29T01:37:23.557Z,47.2
2022-07-29T01:39:23.554Z,47.3
2022-07-29T01:40:23.557Z,46.9
2022-07-29T01:41:23.551Z,47.4
2022-07-29T01:42:23.557Z,47.3
2022-07-29T01:43:23.563Z,47.4
2022-07-29T01:44:23.563Z,47.5
2022-07-29T01:45:23.557Z,47.1
2022-07-29T01:47:23.556Z,47.6
2022-07-29T01:48:23.550Z,47.3
2022-07-29T01:49:23.596Z,48
2022-07-29T01:50:23.553Z,48.6
2022-07-29T01:51:23.553Z,48.5
2022-07-29T01:52:23.560Z,48.5
2022-07-29T01:53:23.567Z,48.3
2022-07-29T01:54:23.556Z,48.6
2022-07-29T01:55:23.560Z,48.8
2022-07-29T01:56:23.558Z,48.9
2022-07-29T01:57:23.576Z,48.3
2022-07-29T02:00:23.555Z,49.1
2022-07-29T02:01:23.608Z,49.8
2022-07-29T02:02:23.566Z,48.9
2022-07-29T02:03:23.567Z,48.1
2022-07-29T02:04:29.012Z,48.2
2022-07-29T02:05:23.617Z,48.6
2022-07-29T02:06:23.561Z,48.3
2022-07-29T02:08:23.574Z,49.4
2022-07-29T02:09:23.565Z,50
2022-07-29T02:10:25.980Z,50
2022-07-29T02:12:23.562Z,50
2022-07-29T02:13:23.575Z,48.2
2022-07-29T02:14:23.631Z,50.8
2022-07-29T02:15:23.569Z,50.8
2022-07-29T02:16:23.599Z,49.7
2022-07-29T02:17:23.573Z,49.7
2022-07-29T02:18:23.565Z,49.1
2022-07-29T02:19:23.563Z,49.4
2022-07-29T02:21:23.570Z,49.2
2022-07-29T02:22:23.577Z,49.5
2022-07-29T02:23:23.576Z,49
2022-07-29T02:24:23.574Z,49.3
2022-07-29T02:26:23.569Z,49
2022-07-29T02:27:23.575Z,49.4
2022-07-29T02:29:23.580Z,49.6
2022-07-29T02:30:23.573Z,49.5
2022-07-29T02:31:23.600Z,49.2
2022-07-29T02:32:23.577Z,49.7
2022-07-29T02:33:23.584Z,49.3
2022-07-29T02:34:23.572Z,49.5
2022-07-29T02:35:23.576Z,49.9
2022-07-29T02:36:23.575Z,49.1
2022-07-29T02:37:23.578Z,48.9
2022-07-29T02:38:23.584Z,48.8
2022-07-29T02:39:23.577Z,49.9
2022-07-29T02:40:23.584Z,49.7
2022-07-29T02:42:23.584Z,49.8
2022-07-29T02:43:23.574Z,50.2
2022-07-29T02:45:23.580Z,50.5
2022-07-29T02:47:23.593Z,50.3
2022-07-29T02:48:23.583Z,50.7
2022-07-29T02:50:23.576Z,51.3
2022-07-29T02:51:41.458Z,51.3
2022-07-29T02:52:23.579Z,50.7
2022-07-29T02:53:23.586Z,50.6
2022-07-29T02:54:23.586Z,51.1
2022-07-29T02:55:23.579Z,51.7
2022-07-29T02:56:23.581Z,52.4
2022-07-29T02:57:23.588Z,51.8
2022-07-29T02:58:23.594Z,51.9
2022-07-29T03:00:23.587Z,50.7
2022-07-29T03:01:23.636Z,49.8
2022-07-29T03:03:23.592Z,50.5
2022-07-29T03:04:24.025Z,49.9
2022-07-29T03:05:23.585Z,49.9
2022-07-29T03:06:28.768Z,50.6
2022-07-29T03:07:23.593Z,51.3
2022-07-29T03:08:23.596Z,52.3
2022-07-29T03:13:23.601Z,51.6
2022-07-29T03:14:23.599Z,52.2
2022-07-29T03:15:24.748Z,51.6
2022-07-29T03:16:23.698Z,50.6
2022-07-29T03:17:23.601Z,51.4
2022-07-29T03:18:23.600Z,51.3
2022-07-29T03:19:23.599Z,51.3
2022-07-29T03:20:23.613Z,50.7
2022-07-29T03:21:23.594Z,52.1
2022-07-29T03:22:23.613Z,52.3
2022-07-29T03:24:23.591Z,52.9
2022-07-29T03:25:23.591Z,52.2
2022-07-29T03:26:23.600Z,53
2022-07-29T03:27:23.604Z,52.9
2022-07-29T03:28:23.597Z,52.9
2022-07-29T03:29:23.598Z,52.2
2022-07-29T03:30:23.599Z,52.6
2022-07-29T03:32:23.916Z,52.2
2022-07-29T03:33:23.597Z,52
2022-07-29T03:34:23.631Z,50.9
2022-07-29T03:35:23.603Z,52.4
2022-07-29T03:36:23.602Z,52.5
2022-07-29T03:37:23.629Z,53.8
2022-07-29T03:38:23.603Z,53.5
2022-07-29T03:40:23.616Z,54.9
2022-07-29T03:41:23.599Z,54.4
2022-07-29T03:42:23.606Z,54.9
2022-07-29T03:43:23.601Z,55.4
2022-07-29T03:45:23.607Z,54.8
2022-07-29T03:46:23.742Z,55
2022-07-29T03:47:23.607Z,54.9
2022-07-29T03:48:23.608Z,54.6
2022-07-29T03:49:23.681Z,53.7
2022-07-29T03:50:23.608Z,54
2022-07-29T03:51:34.130Z,54.5
2022-07-29T03:53:23.609Z,54.1
2022-07-29T03:54:23.622Z,53.9
2022-07-29T03:55:23.608Z,54.8
2022-07-29T03:56:23.606Z,55.1
2022-07-29T03:57:23.615Z,55
2022-07-29T03:59:23.619Z,54.3
2022-07-29T04:01:23.734Z,54.1
2022-07-29T04:02:27.356Z,53.4
2022-07-29T04:03:23.669Z,54.1
2022-07-29T04:04:23.627Z,54.4
2022-07-29T04:05:23.601Z,54.5
2022-07-29T04:06:23.653Z,55.1
2022-07-29T04:07:23.608Z,53.5
2022-07-29T04:08:23.626Z,54.1
2022-07-29T04:09:23.612Z,53.4
2022-07-29T04:10:31.750Z,54.8
2022-07-29T04:11:23.615Z,53.7
2022-07-29T04:12:23.612Z,54.5
2022-07-29T04:13:23.613Z,54.9
2022-07-29T04:14:23.623Z,55.4
2022-07-29T04:15:23.612Z,55.8
2022-07-29T04:17:23.617Z,55.2
2022-07-29T04:18:23.611Z,55.6
2022-07-29T04:19:23.629Z,55
2022-07-29T04:20:23.617Z,55.2
2022-07-29T04:21:23.617Z,54.1
2022-07-29T04:22:23.615Z,53.5
2022-07-29T04:23:23.623Z,54.4
2022-07-29T04:25:23.615Z,55.2
2022-07-29T04:26:23.618Z,53.4
2022-07-29T04:27:23.621Z,56.3
2022-07-29T04:28:23.625Z,56
2022-07-29T04:29:23.616Z,57.3
2022-07-29T04:30:23.618Z,58.4
2022-07-29T04:31:25.869Z,58.4
2022-07-29T04:32:23.621Z,60.6
2022-07-29T04:33:24.969Z,61.8
2022-07-29T04:34:23.628Z,64.4
2022-07-29T04:35:23.633Z,63.3
2022-07-29T04:36:29.202Z,65.5
2022-07-29T04:38:23.643Z,66.1
2022-07-29T04:39:23.628Z,65.2
2022-07-29T04:40:23.624Z,64.1
2022-07-29T04:41:23.644Z,65.7
2022-07-29T04:42:27.446Z,68.3
2022-07-29T04:43:23.627Z,68.5
2022-07-29T04:44:28.484Z,66.8
2022-07-29T04:46:23.691Z,69
2022-07-29T04:49:23.695Z,65.8
2022-07-29T04:50:23.621Z,70.7
2022-07-29T04:51:23.645Z,69.5
2022-07-29T04:52:23.642Z,69
2022-07-29T04:53:23.625Z,69.2
2022-07-29T04:54:23.635Z,69.7
2022-07-29T04:55:23.640Z,69.1
2022-07-29T04:56:23.627Z,70.6
2022-07-29T04:57:23.637Z,72.5
2022-07-29T04:59:23.629Z,70.6
2022-07-29T05:00:23.640Z,70.1
2022-07-29T05:01:23.688Z,69.9
2022-07-29T05:02:23.708Z,70.1
2022-07-29T05:03:23.634Z,69.4
2022-07-29T05:04:23.629Z,71.5
2022-07-29T05:05:23.637Z,70.7
2022-07-29T05:07:23.634Z,70.3
2022-07-29T05:09:23.638Z,70.2
2022-07-29T05:10:23.638Z,70.7
2022-07-29T05:11:26.154Z,71.6
2022-07-29T05:12:23.645Z,73.1
2022-07-29T05:13:23.630Z,71.8
2022-07-29T05:14:23.646Z,71.9
2022-07-29T05:15:23.646Z,71.1
2022-07-29T05:16:23.752Z,71
2022-07-29T05:17:23.643Z,69.8
2022-07-29T05:18:26.200Z,70.5
2022-07-29T05:20:23.637Z,70.2
2022-07-29T05:21:23.643Z,70.4
2022-07-29T05:22:23.646Z,69.9
2022-07-29T05:23:23.635Z,69.4
2022-07-29T05:24:23.645Z,70.2
2022-07-29T05:25:23.649Z,69.3
2022-07-29T05:26:23.638Z,69.8
2022-07-29T05:28:23.645Z,69.3
2022-07-29T05:30:23.662Z,70.4
2022-07-29T05:31:23.731Z,68.5
2022-07-29T05:32:23.647Z,69
2022-07-29T05:33:35.463Z,68.6
2022-07-29T05:34:23.650Z,70
2022-07-29T05:35:23.653Z,69.1
2022-07-29T05:37:23.650Z,69.9
2022-07-29T05:38:23.645Z,68
2022-07-29T05:39:48.581Z,67.9
2022-07-29T05:41:23.644Z,67.4
2022-07-29T05:42:23.655Z,68.5
2022-07-29T05:43:23.651Z,69.6
2022-07-29T05:44:25.325Z,69.8
2022-07-29T05:45:23.665Z,71.1
2022-07-29T05:46:23.764Z,70.9
2022-07-29T05:47:23.722Z,71.4
2022-07-29T05:49:27.381Z,72.3
2022-07-29T05:50:23.657Z,73.1
2022-07-29T05:51:23.647Z,70.8
2022-07-29T05:52:23.663Z,72.3
2022-07-29T05:53:23.655Z,71
2022-07-29T05:54:23.652Z,70.7
2022-07-29T05:55:23.648Z,70
2022-07-29T05:57:23.818Z,69.4
2022-07-29T05:58:23.655Z,69.5
2022-07-29T05:59:28.297Z,69.1
2022-07-29T06:00:23.658Z,69.1
2022-07-29T06:02:23.665Z,68.9
2022-07-29T06:03:23.676Z,69.2
2022-07-29T06:04:23.692Z,68.8
2022-07-29T06:05:23.659Z,69.6
2022-07-29T06:06:23.657Z,70.5
2022-07-29T06:07:23.658Z,70
2022-07-29T06:08:23.657Z,69.6
2022-07-29T06:10:23.935Z,71.6
2022-07-29T06:11:23.675Z,72.2
2022-07-29T06:12:23.663Z,69.7
2022-07-29T06:13:23.656Z,71.3
2022-07-29T06:14:23.665Z,69.9
2022-07-29T06:16:30.305Z,70.2
2022-07-29T06:17:23.655Z,69.7
2022-07-29T06:18:23.657Z,68.8
2022-07-29T06:19:23.656Z,70.1
2022-07-29T06:20:26.913Z,69
2022-07-29T06:21:23.662Z,68.9
2022-07-29T06:23:23.666Z,71.1
2022-07-29T06:24:23.673Z,70.6
2022-07-29T06:25:23.662Z,71.7
2022-07-29T06:26:30.999Z,72.3
2022-07-29T06:27:23.664Z,70.9
2022-07-29T06:28:23.663Z,71.5
2022-07-29T06:29:23.657Z,69.3
2022-07-29T06:31:24.049Z,71.5
2022-07-29T06:32:23.663Z,71.8
2022-07-29T06:33:23.661Z,74.3
2022-07-29T06:34:23.678Z,73.3
2022-07-29T06:35:42.418Z,72.6
2022-07-29T06:36:23.663Z,73.6
2022-07-29T06:37:23.666Z,74.9
2022-07-29T06:38:31.557Z,76
2022-07-29T06:39:23.728Z,76
2022-07-29T06:41:23.659Z,76.4
2022-07-29T06:42:23.662Z,75.5
2022-07-29T06:44:23.661Z,77.5
2022-07-29T06:45:23.665Z,77.2
2022-07-29T06:46:23.913Z,76.5
2022-07-29T06:47:23.665Z,79
2022-07-29T06:48:23.673Z,78.5
2022-07-29T06:49:23.729Z,77.4
2022-07-29T06:50:23.667Z,77.2
2022-07-29T06:52:23.665Z,76.6
2022-07-29T06:53:23.666Z,72.5
2022-07-29T06:54:23.668Z,74.3
2022-07-29T06:55:25.060Z,73.5
2022-07-29T06:56:23.671Z,76.1
2022-07-29T06:57:23.672Z,75.7
2022-07-29T06:58:23.672Z,75.2
2022-07-29T06:59:32.083Z,74.5
2022-07-29T07:00:23.681Z,74.3
2022-07-29T07:01:23.746Z,76.2
2022-07-29T07:02:23.735Z,73.9
2022-07-29T07:03:23.672Z,73.8
2022-07-29T07:05:23.672Z,74.1
2022-07-29T07:06:23.668Z,74.2
2022-07-29T07:07:23.674Z,74.7
2022-07-29T07:08:23.666Z,74.9
2022-07-29T07:09:23.681Z,74.5
2022-07-29T07:11:23.673Z,75.9
2022-07-29T07:13:23.678Z,75.8
2022-07-29T07:14:23.677Z,74.4
2022-07-29T07:15:39.187Z,74.7
2022-07-29T07:16:23.753Z,75.4
2022-07-29T07:17:23.683Z,74.2
2022-07-29T07:18:23.680Z,74.3
2022-07-29T07:19:23.681Z,71.6
2022-07-29T07:20:23.689Z,71.7
2022-07-29T07:21:23.677Z,71.8
2022-07-29T07:22:23.696Z,71.7
2022-07-29T07:23:23.689Z,75.2
2022-07-29T07:24:23.687Z,72.7
2022-07-29T07:26:23.686Z,71.8
2022-07-29T07:27:23.687Z,70
2022-07-29T07:28:24.465Z,72
2022-07-29T07:29:23.685Z,72.4
2022-07-29T07:30:23.697Z,69.3
2022-07-29T07:32:23.714Z,69.6
2022-07-29T07:33:23.687Z,69.1
2022-07-29T07:34:28.496Z,70.5
2022-07-29T07:35:23.690Z,69.7
2022-07-29T07:37:23.682Z,69.1
2022-07-29T07:38:23.679Z,69.9
2022-07-29T07:39:23.688Z,68.9
2022-07-29T07:42:23.686Z,68.5
2022-07-29T07:43:23.700Z,67.2
2022-07-29T07:45:23.690Z,68
2022-07-29T07:46:23.757Z,66.8
2022-07-29T07:47:23.691Z,65.6
2022-07-29T07:48:23.693Z,64.5
2022-07-29T07:49:23.756Z,65.6
2022-07-29T07:50:23.701Z,64.3
2022-07-29T07:51:23.688Z,64.1
2022-07-29T07:52:23.697Z,64
2022-07-29T07:53:23.690Z,64.6
2022-07-29T07:55:23.686Z,66.6
2022-07-29T07:56:23.692Z,64.6
2022-07-29T07:58:23.686Z,66
2022-07-29T07:59:23.694Z,68.9
2022-07-29T08:00:23.993Z,67.8
2022-07-29T08:01:23.811Z,66.3
2022-07-29T08:02:23.771Z,67
2022-07-29T08:03:23.696Z,68
2022-07-29T08:04:28.017Z,67.5
2022-07-29T08:06:23.698Z,65.5
2022-07-29T08:07:23.693Z,65.4
2022-07-29T08:08:23.696Z,64.7
2022-07-29T08:09:30.135Z,65.6
2022-07-29T08:10:23.700Z,65.3
2022-07-29T08:11:23.697Z,64.7
2022-07-29T08:12:23.701Z,66.6
2022-07-29T08:13:23.703Z,67.2
2022-07-29T08:15:23.701Z,66.4
2022-07-29T08:16:23.758Z,65.4
2022-07-29T08:17:23.707Z,63.7
2022-07-29T08:19:23.696Z,66.3
2022-07-29T08:20:23.711Z,65.8
2022-07-29T08:21:23.703Z,66.1
2022-07-29T08:22:23.699Z,66.5
2022-07-29T08:23:23.703Z,65.8
2022-07-29T08:25:23.704Z,65.9
2022-07-29T08:27:42.413Z,64.5
2022-07-29T08:28:25.976Z,63.8
2022-07-29T08:29:23.712Z,64.7
2022-07-29T08:30:23.708Z,64.9
2022-07-29T08:31:23.794Z,65.7
2022-07-29T08:32:50.919Z,64
2022-07-29T08:33:23.704Z,63.6
2022-07-29T08:34:26.921Z,64.2
2022-07-29T08:35:23.723Z,66.6
2022-07-29T08:36:23.727Z,67.7
2022-07-29T08:37:23.712Z,69.2
2022-07-29T08:38:23.719Z,71.7
2022-07-29T08:40:32.144Z,73.9
2022-07-29T08:41:23.716Z,74
2022-07-29T08:42:23.710Z,73.1
2022-07-29T08:43:23.719Z,74.2
2022-07-29T08:44:30.519Z,72.3
2022-07-29T08:45:23.746Z,75.5
2022-07-29T08:46:23.783Z,75.6
2022-07-29T08:48:23.710Z,78.7
2022-07-29T08:50:23.719Z,79.2
2022-07-29T08:51:23.724Z,80.3
2022-07-29T08:53:23.721Z,78
2022-07-29T08:54:23.720Z,76.7
2022-07-29T08:55:23.717Z,78.3
2022-07-29T08:56:23.713Z,79.1
2022-07-29T08:57:23.719Z,79.5
2022-07-29T08:58:25.105Z,78.3
2022-07-29T08:59:23.727Z,79.4
2022-07-29T09:01:23.780Z,79.1
2022-07-29T09:02:23.720Z,79.7
2022-07-29T09:03:23.773Z,80.6
2022-07-29T09:04:23.717Z,80.5
2022-07-29T09:05:23.726Z,79.3
2022-07-29T09:06:23.721Z,80.2
2022-07-29T09:07:23.735Z,79.7
2022-07-29T09:09:23.730Z,80.5
2022-07-29T09:10:23.735Z,80.6
2022-07-29T09:11:23.719Z,79.7
2022-07-29T09:12:29.280Z,79.2
2022-07-29T09:13:23.730Z,78.2
2022-07-29T09:14:23.725Z,80.3
2022-07-29T09:15:23.718Z,77.6
2022-07-29T09:16:50.812Z,78.4
2022-07-29T09:18:30.817Z,78.2
2022-07-29T09:19:23.747Z,79
2022-07-29T09:20:23.728Z,77.4
2022-07-29T09:22:23.727Z,78.8
2022-07-29T09:23:24.442Z,75.5
2022-07-29T09:24:23.724Z,75.7
2022-07-29T09:25:23.735Z,79.4
2022-07-29T09:26:23.730Z,79.9
2022-07-29T09:27:23.733Z,81.2
2022-07-29T09:30:31.397Z,76.3
2022-07-29T09:31:23.753Z,78
2022-07-29T09:33:23.727Z,78.2
2022-07-29T09:34:23.784Z,79.4
2022-07-29T09:35:23.741Z,77.1
2022-07-29T09:36:23.729Z,78.3
2022-07-29T09:37:23.729Z,80.3
2022-07-29T09:38:23.740Z,76.6
2022-07-29T09:39:23.734Z,78.9
2022-07-29T09:41:23.735Z,77.1
2022-07-29T09:42:23.736Z,77.3
2022-07-29T09:43:23.815Z,79.2
2022-07-29T09:44:23.739Z,79.5
2022-07-29T09:45:23.762Z,77.6
2022-07-29T09:46:23.755Z,77.2
2022-07-29T09:47:23.744Z,77.3
2022-07-29T09:49:23.802Z,79.8
2022-07-29T09:50:23.738Z,78.9
2022-07-29T09:51:37.851Z,78.1
2022-07-29T09:52:23.746Z,78.6
2022-07-29T09:54:23.738Z,79.7
2022-07-29T09:55:23.759Z,78.9
2022-07-29T09:56:23.738Z,77.9
2022-07-29T09:57:26.164Z,79
2022-07-29T09:58:23.739Z,77.2
2022-07-29T09:59:23.749Z,79
2022-07-29T10:00:23.743Z,78.7
2022-07-29T10:02:24.052Z,77.5
2022-07-29T10:03:23.783Z,78.7
2022-07-29T10:05:23.757Z,75.6
2022-07-29T10:06:23.742Z,76.4
2022-07-29T10:07:23.742Z,78.4
2022-07-29T10:08:23.749Z,78.8
2022-07-29T10:10:23.751Z,74.5
2022-07-29T10:11:23.744Z,72.2
2022-07-29T10:12:23.747Z,72
2022-07-29T10:13:23.753Z,73.4
2022-07-29T10:15:23.745Z,74.8
2022-07-29T10:16:23.806Z,74.5
2022-07-29T10:18:23.748Z,73.5
2022-07-29T10:19:23.744Z,72.7
2022-07-29T10:20:23.753Z,72.6
2022-07-29T10:21:35.895Z,73.1
2022-07-29T10:23:23.749Z,71.5
2022-07-29T10:24:23.767Z,72.7
2022-07-29T10:25:23.767Z,71.4
2022-07-29T10:26:23.750Z,72.6
2022-07-29T10:27:23.757Z,72.2
2022-07-29T10:28:24.146Z,72.8
2022-07-29T10:29:23.769Z,73.8
2022-07-29T10:31:23.824Z,72
2022-07-29T10:32:30.150Z,72
2022-07-29T10:33:23.759Z,71.8
2022-07-29T10:34:23.755Z,71.5
2022-07-29T10:35:23.756Z,72.2
2022-07-29T10:36:23.758Z,72.1
2022-07-29T10:37:23.764Z,69.8
2022-07-29T10:38:24.776Z,69.5
2022-07-29T10:39:23.757Z,70.2
2022-07-29T10:40:23.761Z,68.8
2022-07-29T10:41:23.756Z,70.2
2022-07-29T10:44:23.994Z,69.4
2022-07-29T10:45:23.757Z,69.9
2022-07-29T10:47:23.765Z,71
2022-07-29T10:48:23.758Z,70.9
2022-07-29T10:49:25.087Z,71.8
2022-07-29T10:50:23.765Z,70.8
2022-07-29T10:53:23.771Z,70.3
2022-07-29T10:54:23.768Z,70.7
2022-07-29T10:55:23.764Z,70.2
2022-07-29T10:56:23.764Z,70.9
2022-07-29T10:57:25.665Z,69.4
2022-07-29T10:58:23.772Z,69.2
2022-07-29T10:59:23.769Z,69
2022-07-29T11:00:23.768Z,66.4
2022-07-29T11:01:37.315Z,65.9
2022-07-29T11:02:42.741Z,67.1
2022-07-29T11:03:23.785Z,69.2
2022-07-29T11:05:23.768Z,66.2
2022-07-29T11:06:26.932Z,66.8
2022-07-29T11:08:26.083Z,66.1
2022-07-29T11:09:34.937Z,67.1
2022-07-29T11:10:27.012Z,66
2022-07-29T11:11:23.765Z,65.2
2022-07-29T11:13:23.771Z,66.6
2022-07-29T11:14:26.626Z,65.8
2022-07-29T11:15:24.967Z,64.2
2022-07-29T11:16:25.252Z,63
2022-07-29T11:18:23.798Z,62.7
2022-07-29T11:19:26.643Z,62.7
2022-07-29T11:20:23.778Z,63.3
2022-07-29T11:22:23.770Z,61.7
2022-07-29T11:23:23.775Z,61
2022-07-29T11:24:28.894Z,61.6
2022-07-29T11:26:23.785Z,58.5
2022-07-29T11:27:23.774Z,59
2022-07-29T11:29:23.783Z,59.2
2022-07-29T11:30:25.121Z,58.7
2022-07-29T11:31:25.096Z,59
2022-07-29T11:33:54.643Z,57
2022-07-29T11:35:36.781Z,56.8
2022-07-29T11:36:27.936Z,55.6
2022-07-29T11:37:27.902Z,55.4
2022-07-29T11:39:23.807Z,55.7
2022-07-29T11:40:23.787Z,56.5
2022-07-29T11:41:23.786Z,58.6
2022-07-29T11:43:23.789Z,56.5
2022-07-29T11:44:23.860Z,56.1
2022-07-29T11:45:42.946Z,54.8
2022-07-29T11:47:23.816Z,52.8
2022-07-29T11:48:28.864Z,53
2022-07-29T11:49:32.014Z,54.3
2022-07-29T11:50:26.947Z,55.1
2022-07-29T11:52:23.796Z,48.7
2022-07-29T11:53:23.787Z,48.3
2022-07-29T11:54:27.262Z,48.7
2022-07-29T11:56:25.641Z,48.2
2022-07-29T11:57:36.310Z,49.8
2022-07-29T12:01:23.798Z,48.4
2022-07-29T12:03:32.811Z,48.4
2022-07-29T12:04:23.796Z,46.9
2022-07-29T12:05:36.874Z,48.8
2022-07-29T12:06:23.799Z,49.2
2022-07-29T12:08:23.798Z,47.3
2022-07-29T12:09:23.803Z,47.9
2022-07-29T12:11:23.822Z,49.6
2022-07-29T12:12:24.598Z,49.8
2022-07-29T12:13:37.638Z,48.1
2022-07-29T12:14:23.795Z,47.3
2022-07-29T12:15:23.801Z,48.2
2022-07-29T12:16:25.799Z,46.2
2022-07-29T12:17:23.801Z,46.2
2022-07-29T12:18:24.059Z,48.1
2022-07-29T12:19:23.795Z,47.5
2022-07-29T12:22:23.800Z,49
2022-07-29T12:23:23.798Z,49.3
2022-07-29T12:24:26.805Z,49.6
2022-07-29T12:25:32.819Z,49.9
2022-07-29T12:26:25.789Z,50.4
2022-07-29T12:27:29.382Z,50.8
2022-07-29T12:29:33.777Z,49.1
2022-07-29T12:30:23.806Z,46.6
2022-07-29T12:31:42.417Z,48.5
2022-07-29T12:32:23.867Z,47.8
2022-07-29T12:33:23.808Z,48.5
2022-07-29T12:34:23.802Z,49.6
2022-07-29T12:36:23.808Z,49.6
2022-07-29T12:37:40.621Z,49.5
2022-07-29T12:38:23.813Z,49.9
2022-07-29T12:39:23.808Z,50.2
2022-07-29T12:40:23.808Z,48.7
2022-07-29T12:43:23.816Z,50.4
2022-07-29T12:44:23.810Z,49.7
2022-07-29T12:45:23.809Z,49.6
2022-07-29T12:46:23.899Z,50
2022-07-29T12:47:23.814Z,50.2
2022-07-29T12:48:23.811Z,51
2022-07-29T12:50:26.296Z,49.6
2022-07-29T12:51:23.822Z,48.9
2022-07-29T12:52:23.819Z,50
2022-07-29T12:53:23.817Z,48.8
2022-07-29T12:54:23.826Z,49.3
2022-07-29T12:55:23.822Z,50.2
2022-07-29T12:56:42.180Z,49.8
2022-07-29T12:57:23.819Z,49.1
2022-07-29T12:58:23.825Z,48.9
2022-07-29T13:00:23.915Z,48.9
2022-07-29T13:01:23.876Z,48.8
2022-07-29T13:04:23.825Z,50
2022-07-29T13:05:23.821Z,50.2
2022-07-29T13:06:23.823Z,49.7
2022-07-29T13:07:54.980Z,50
2022-07-29T13:08:23.824Z,50.4
2022-07-29T13:09:23.863Z,49.3
2022-07-29T13:11:23.831Z,49.9
2022-07-29T13:12:23.833Z,50.5
2022-07-29T13:14:23.825Z,50.6
2022-07-29T13:15:23.827Z,50
2022-07-29T13:16:23.889Z,49.9
2022-07-29T13:17:23.858Z,50.6
2022-07-29T13:18:23.831Z,50.4
2022-07-29T13:19:23.830Z,51.3
2022-07-29T13:20:23.861Z,49.4
2022-07-29T13:21:23.899Z,49.5
2022-07-29T13:22:23.870Z,50.1
2022-07-29T13:25:23.838Z,48.7
2022-07-29T13:26:23.835Z,48.7
2022-07-29T13:27:23.837Z,49.3
2022-07-29T13:28:23.841Z,48.8
2022-07-29T13:29:25.074Z,48.7
2022-07-29T13:30:23.887Z,48.9
2022-07-29T13:32:28.606Z,50.5
2022-07-29T13:33:23.841Z,50.4
2022-07-29T13:34:23.834Z,50.7
2022-07-29T13:35:23.839Z,49.6
2022-07-29T13:36:23.853Z,49.5
2022-07-29T13:37:23.844Z,48
2022-07-29T13:38:23.837Z,48.4
2022-07-29T13:39:23.840Z,48
2022-07-29T13:40:23.843Z,47.3
2022-07-29T13:41:23.835Z,47.6
2022-07-29T13:42:23.838Z,47.2
2022-07-29T13:43:23.883Z,46.7
2022-07-29T13:46:23.902Z,45.5
2022-07-29T13:47:32.466Z,45.2
2022-07-29T13:48:23.865Z,45.6
2022-07-29T13:49:23.955Z,46.2
2022-07-29T13:51:23.841Z,47.8
2022-07-29T13:52:23.856Z,47.7
2022-07-29T13:53:26.885Z,48.6
2022-07-29T13:54:23.845Z,48.6
2022-07-29T13:55:23.867Z,48.9
2022-07-29T13:56:23.847Z,48.8
2022-07-29T13:57:23.848Z,48.3
2022-07-29T13:58:23.857Z,47.9
2022-07-29T13:59:23.853Z,48.6
2022-07-29T14:00:23.861Z,48.5
2022-07-29T14:01:23.891Z,47.7
2022-07-29T14:02:26.093Z,47.9
2022-07-29T14:04:23.893Z,47.1
2022-07-29T14:05:23.925Z,46.5
2022-07-29T14:07:23.865Z,45
2022-07-29T14:08:23.855Z,45.9
2022-07-29T14:09:23.853Z,45
2022-07-29T14:10:23.858Z,45
2022-07-29T14:12:23.859Z,46.1
2022-07-29T14:13:25.685Z,46.3
2022-07-29T14:14:23.857Z,45.8
2022-07-29T14:15:23.865Z,46.2
2022-07-29T14:16:23.963Z,46.2
2022-07-29T14:17:23.912Z,45.6
2022-07-29T14:18:23.853Z,45.3
2022-07-29T14:19:23.861Z,45.6
2022-07-29T14:20:23.863Z,46.1
2022-07-29T14:21:23.869Z,45.8
2022-07-29T14:22:25.608Z,45.2
2022-07-29T14:23:23.876Z,44.6
2022-07-29T14:25:23.880Z,44.5
2022-07-29T14:26:24.286Z,43.7
2022-07-29T14:28:23.866Z,43.8
2022-07-29T14:29:23.859Z,43.6
2022-07-29T14:30:23.867Z,44.8
2022-07-29T14:31:23.941Z,45.3
2022-07-29T14:33:23.872Z,45.5
2022-07-29T14:34:23.867Z,42.9
2022-07-29T14:35:23.871Z,43.8
2022-07-29T14:36:23.873Z,44.5
2022-07-29T14:38:23.872Z,44.4
2022-07-29T14:39:23.877Z,44.1
2022-07-29T14:40:23.869Z,44
2022-07-29T14:41:23.868Z,42.7
2022-07-29T14:42:23.874Z,43.1
2022-07-29T14:43:23.877Z,43.9
2022-07-29T14:44:23.885Z,43.5
2022-07-29T14:46:24.001Z,43.2
2022-07-29T14:47:23.886Z,43.8
2022-07-29T14:49:23.917Z,44.2
2022-07-29T14:50:31.661Z,42.7
2022-07-29T14:51:23.888Z,44.2
2022-07-29T14:52:23.876Z,43.5
2022-07-29T14:54:23.887Z,43.5
2022-07-29T14:55:23.881Z,44.3
2022-07-29T14:56:37.672Z,43.8
2022-07-29T14:57:23.885Z,43.1
2022-07-29T15:00:23.883Z,43.3
2022-07-29T15:01:24.309Z,44.1
2022-07-29T15:02:39.994Z,43.4
2022-07-29T15:03:24.543Z,43.9
2022-07-29T15:04:23.900Z,43.4
2022-07-29T15:05:23.902Z,42.7
2022-07-29T15:07:23.920Z,42.3
2022-07-29T15:08:23.884Z,43.1
2022-07-29T15:09:23.884Z,42.8
2022-07-29T15:10:23.887Z,42.5
2022-07-29T15:11:23.890Z,40.9
2022-07-29T15:13:23.896Z,41.9
2022-07-29T15:15:23.887Z,41.8
2022-07-29T15:16:23.980Z,42.1
2022-07-29T15:17:23.894Z,41.3
2022-07-29T15:18:25.432Z,42.9
2022-07-29T15:21:23.901Z,41.8
2022-07-29T15:22:23.893Z,42.1
2022-07-29T15:23:23.905Z,41.7
2022-07-29T15:24:23.903Z,41.4
2022-07-29T15:25:23.897Z,41.5
2022-07-29T15:28:23.901Z,42.3
2022-07-29T15:29:23.892Z,42
2022-07-29T15:30:32.339Z,42.3
2022-07-29T15:31:23.984Z,42.6
2022-07-29T15:32:23.942Z,43.1
2022-07-29T15:33:23.903Z,43.3
2022-07-29T15:34:23.909Z,42.9
2022-07-29T15:35:23.911Z,43.2
2022-07-29T15:36:50.897Z,42.8
2022-07-29T15:37:23.899Z,43.9
2022-07-29T15:38:28.559Z,43.9
2022-07-29T15:39:23.900Z,43.4
2022-07-29T15:42:23.902Z,43.5
2022-07-29T15:43:23.912Z,42.7
2022-07-29T15:44:23.909Z,43.9
2022-07-29T15:45:23.972Z,44
2022-07-29T15:48:23.916Z,43.8
2022-07-29T15:49:24.002Z,43.5
2022-07-29T15:50:23.913Z,43.8
2022-07-29T15:51:23.919Z,43.3
2022-07-29T15:52:24.919Z,43.5
2022-07-29T15:53:23.912Z,44.1
2022-07-29T15:54:23.936Z,44.1
2022-07-29T15:55:23.914Z,44.7
2022-07-29T15:56:23.911Z,44.2
2022-07-29T15:57:24.029Z,43.6
2022-07-29T15:58:23.919Z,44.3
2022-07-29T16:00:23.917Z,44.8
2022-07-29T16:01:23.935Z,44.6
2022-07-29T16:02:23.940Z,43.2
2022-07-29T16:03:23.921Z,43
2022-07-29T16:04:23.952Z,43.4
2022-07-29T16:05:23.919Z,42.7
2022-07-29T16:06:23.938Z,42.3
2022-07-29T16:08:23.918Z,42.5
2022-07-29T16:09:23.913Z,43
2022-07-29T16:10:23.920Z,42.9
2022-07-29T16:11:23.935Z,42.4
2022-07-29T16:12:23.932Z,43
2022-07-29T16:14:24.004Z,43.4
2022-07-29T16:15:23.927Z,43.5
2022-07-29T16:16:23.973Z,43.4